createdAt,value
2023-01-28T00:00:04.169Z,0.54
2023-01-28T00:02:32.644Z,0.52
2023-01-28T00:05:02.485Z,0.53
2023-01-28T00:07:31.067Z,0.53
2023-01-28T00:09:59.615Z,0.54
2023-01-28T00:12:29.708Z,0.53
2023-01-28T00:14:58.127Z,0.53
2023-01-28T00:17:26.570Z,0.53
2023-01-28T00:19:55.564Z,0.55
2023-01-28T00:22:25.365Z,0.51
2023-01-28T00:24:53.821Z,0.51
2023-01-28T00:27:22.272Z,0.51
2023-01-28T00:29:50.715Z,0.52
2023-01-28T00:32:19.118Z,0.50
2023-01-28T00:34:47.578Z,0.49
2023-01-28T00:37:15.972Z,0.49
2023-01-28T00:39:45.746Z,0.49
2023-01-28T00:42:14.185Z,0.53
2023-01-28T00:44:42.590Z,0.51
2023-01-28T00:47:11.120Z,0.53
2023-01-28T00:49:39.556Z,0.55
2023-01-28T00:52:08.385Z,0.51
2023-01-28T00:54:37.689Z,0.47
2023-01-28T00:57:08.128Z,0.45
2023-01-28T00:59:36.536Z,0.46
2023-01-28T01:02:12.691Z,0.51
2023-01-28T01:04:41.954Z,0.50
2023-01-28T01:07:10.355Z,0.46
2023-01-28T01:09:38.781Z,0.47
2023-01-28T01:12:09.022Z,0.47
2023-01-28T01:14:37.448Z,0.45
2023-01-28T01:17:05.937Z,0.45
2023-01-28T01:19:34.328Z,0.39
2023-01-28T01:22:02.743Z,0.33
2023-01-28T01:24:34.097Z,0.30
2023-01-28T01:27:02.675Z,0.30
2023-01-28T01:29:33.836Z,0.30
2023-01-28T01:32:02.352Z,0.31
2023-01-28T01:34:30.796Z,0.35
2023-01-28T01:37:00.135Z,0.38
2023-01-28T01:39:28.552Z,0.42
2023-01-28T01:41:57.315Z,0.44
2023-01-28T01:45:02.334Z,0.48
2023-01-28T01:47:42.491Z,0.50
2023-01-28T01:50:17.802Z,0.55
2023-01-28T01:52:48.601Z,0.56
2023-01-28T01:55:22.874Z,0.57
2023-01-28T01:57:57.901Z,0.58
2023-01-28T02:00:28.788Z,0.55
2023-01-28T02:02:58.989Z,0.57
2023-01-28T02:05:27.795Z,0.59
2023-01-28T02:08:20.394Z,0.61
2023-01-28T02:10:51.805Z,0.61
2023-01-28T02:13:22.237Z,0.59
2023-01-28T02:15:52.774Z,0.62
2023-01-28T02:18:21.169Z,0.66
2023-01-28T02:21:20.778Z,0.65
2023-01-28T02:24:15.547Z,0.65
2023-01-28T02:27:15.915Z,0.62
2023-01-28T02:29:51.842Z,0.62
2023-01-28T02:32:25.553Z,0.61
2023-01-28T02:34:59.103Z,0.59
2023-01-28T02:37:35.272Z,0.62
2023-01-28T02:40:10.754Z,0.61
2023-01-28T02:42:41.473Z,0.59
2023-01-28T02:45:21.577Z,0.59
2023-01-28T02:47:57.810Z,0.58
2023-01-28T02:50:34.553Z,0.61
2023-01-28T02:53:35.983Z,0.64
2023-01-28T02:56:13.218Z,0.63
2023-01-28T02:58:48.818Z,0.61
2023-01-28T03:01:27.308Z,0.62
2023-01-28T03:04:00.805Z,0.59
2023-01-28T03:06:35.794Z,0.57
2023-01-28T03:09:26.906Z,0.55
2023-01-28T03:12:15.332Z,0.56
2023-01-28T03:15:04.299Z,0.54
2023-01-28T03:17:57.842Z,0.52
2023-01-28T03:20:47.725Z,0.52
2023-01-28T03:23:40.326Z,0.48
2023-01-28T03:26:30.340Z,0.45
2023-01-28T03:29:23.328Z,0.44
2023-01-28T03:32:10.288Z,0.44
2023-01-28T03:34:58.637Z,0.44
2023-01-28T03:37:28.609Z,0.43
2023-01-28T03:39:58.154Z,0.42
2023-01-28T03:42:26.578Z,0.40
2023-01-28T03:44:54.102Z,0.38
2023-01-28T03:47:24.217Z,0.41
2023-01-28T03:49:55.640Z,0.43
2023-01-28T03:52:25.971Z,0.44
2023-01-28T03:54:54.449Z,0.44
2023-01-28T03:57:25.049Z,0.44
2023-01-28T03:59:54.060Z,0.46
2023-01-28T04:02:23.857Z,0.40
2023-01-28T04:04:53.642Z,0.39
2023-01-28T04:07:22.039Z,0.37
2023-01-28T04:09:50.740Z,0.37
2023-01-28T04:12:19.511Z,0.37
2023-01-28T04:14:47.953Z,0.38
2023-01-28T04:17:16.343Z,0.37
2023-01-28T04:19:44.885Z,0.37
2023-01-28T04:22:14.804Z,0.38
2023-01-28T04:24:43.328Z,0.38
2023-01-28T04:27:11.787Z,0.40
2023-01-28T04:29:40.247Z,0.42
2023-01-28T04:32:11.313Z,0.43
2023-01-28T04:34:40.070Z,0.45
2023-01-28T04:37:08.525Z,0.46
2023-01-28T04:39:38.460Z,0.47
2023-01-28T04:42:06.884Z,0.48
2023-01-28T04:44:35.248Z,0.48
2023-01-28T04:47:03.649Z,0.44
2023-01-28T04:49:32.683Z,0.43
2023-01-28T04:52:01.311Z,0.43
2023-01-28T04:54:29.732Z,0.43
2023-01-28T04:56:59.423Z,0.43
2023-01-28T04:59:27.915Z,0.45
2023-01-28T05:01:56.388Z,0.46
2023-01-28T05:04:25.027Z,0.48
2023-01-28T05:06:53.494Z,0.48
2023-01-28T05:09:22.093Z,0.48
2023-01-28T05:11:50.495Z,0.49
2023-01-28T05:14:20.458Z,0.49
2023-01-28T05:16:48.820Z,0.48
2023-01-28T05:19:17.245Z,0.47
2023-01-28T05:21:45.756Z,0.45
2023-01-28T05:24:14.414Z,0.43
2023-01-28T05:26:43.052Z,0.43
2023-01-28T05:29:11.667Z,0.43
2023-01-28T05:31:41.595Z,0.45
2023-01-28T05:34:09.966Z,0.47
2023-01-28T05:36:38.563Z,0.46
2023-01-28T05:39:12.189Z,0.45
2023-01-28T05:41:40.618Z,0.44
2023-01-28T05:44:08.991Z,0.44
2023-01-28T05:46:37.598Z,0.46
2023-01-28T05:49:09.225Z,0.48
2023-01-28T05:51:39.349Z,0.45
2023-01-28T05:54:07.966Z,0.45
2023-01-28T05:56:36.696Z,0.46
2023-01-28T05:59:05.829Z,0.46
2023-01-28T06:01:34.434Z,0.43
2023-01-28T06:04:02.855Z,0.43
2023-01-28T06:06:32.597Z,0.42
2023-01-28T06:09:00.985Z,0.43
2023-01-28T06:11:29.499Z,0.44
2023-01-28T06:13:57.937Z,0.45
2023-01-28T06:16:26.305Z,0.44
2023-01-28T06:18:54.823Z,0.45
2023-01-28T06:21:23.316Z,0.45
2023-01-28T06:23:53.095Z,0.46
2023-01-28T06:26:21.513Z,0.45
2023-01-28T06:28:49.911Z,0.46
2023-01-28T06:31:18.440Z,0.44
2023-01-28T06:33:46.949Z,0.44
2023-01-28T06:36:15.400Z,0.46
2023-01-28T06:38:43.791Z,0.46
2023-01-28T06:41:13.611Z,0.46
2023-01-28T06:43:41.968Z,0.47
2023-01-28T06:46:10.512Z,0.46
2023-01-28T06:48:38.923Z,0.47
2023-01-28T06:51:07.387Z,0.46
2023-01-28T06:53:36.209Z,0.45
2023-01-28T06:56:05.100Z,0.45
2023-01-28T06:58:35.364Z,0.48
2023-01-28T07:01:03.962Z,0.51
2023-01-28T07:03:32.348Z,0.50
2023-01-28T07:06:02.017Z,0.53
2023-01-28T07:08:30.692Z,0.53
2023-01-28T07:10:59.113Z,0.53
2023-01-28T07:13:27.769Z,0.55
2023-01-28T07:15:57.574Z,0.56
2023-01-28T07:18:26.136Z,0.57
2023-01-28T07:20:54.665Z,0.57
2023-01-28T07:23:24.622Z,0.54
2023-01-28T07:25:52.960Z,0.52
2023-01-28T07:28:22.284Z,0.50
2023-01-28T07:30:53.607Z,0.48
2023-01-28T07:33:23.672Z,0.49
2023-01-28T07:35:52.340Z,0.49
2023-01-28T07:38:20.709Z,0.51
2023-01-28T07:40:49.246Z,0.53
2023-01-28T07:43:19.635Z,0.55
2023-01-28T07:45:48.711Z,0.54
2023-01-28T07:48:17.197Z,0.52
2023-01-28T07:50:48.593Z,0.55
2023-01-28T07:53:17.675Z,0.57
2023-01-28T07:55:46.078Z,0.61
2023-01-28T07:58:14.521Z,0.66
2023-01-28T08:00:43.069Z,0.67
2023-01-28T08:03:15.719Z,0.68
2023-01-28T08:05:48.148Z,0.70
2023-01-28T08:08:17.258Z,0.69
2023-01-28T08:10:46.208Z,0.73
2023-01-28T08:13:16.721Z,0.74
2023-01-28T08:15:45.697Z,0.76
2023-01-28T08:18:16.396Z,0.80
2023-01-28T08:20:46.533Z,0.81
2023-01-28T08:23:18.285Z,0.81
2023-01-28T08:25:47.370Z,0.79
2023-01-28T08:28:17.903Z,0.81
2023-01-28T08:30:47.062Z,0.83
2023-01-28T08:33:17.668Z,0.81
2023-01-28T08:35:46.533Z,0.77
2023-01-28T08:38:17.696Z,0.76
2023-01-28T08:40:46.164Z,0.81
2023-01-28T08:43:14.974Z,0.84
2023-01-28T08:45:43.387Z,0.85
2023-01-28T08:48:15.915Z,0.88
2023-01-28T08:50:44.784Z,0.91
2023-01-28T08:53:14.547Z,0.94
2023-01-28T08:55:45.105Z,0.96
2023-01-28T08:58:15.910Z,0.93
2023-01-28T09:00:45.948Z,0.91
2023-01-28T09:03:14.490Z,0.92
2023-01-28T09:05:43.016Z,0.95
2023-01-28T09:08:13.193Z,0.99
2023-01-28T09:10:42.380Z,1.04
2023-01-28T09:13:15.102Z,1.08
2023-01-28T09:15:44.034Z,1.12
2023-01-28T09:18:12.682Z,1.07
2023-01-28T09:20:41.477Z,0.98
2023-01-28T09:23:11.101Z,0.91
2023-01-28T09:25:39.642Z,0.94
2023-01-28T09:28:08.752Z,0.98
2023-01-28T09:30:39.735Z,1.06
2023-01-28T09:33:08.587Z,1.10
2023-01-28T09:35:37.201Z,1.13
2023-01-28T09:38:05.812Z,1.21
2023-01-28T09:40:38.194Z,1.24
2023-01-28T09:43:41.545Z,1.29
2023-01-28T09:46:14.728Z,1.44
2023-01-28T09:48:46.334Z,1.58
2023-01-28T09:51:29.585Z,1.63
2023-01-28T09:54:01.749Z,1.66
2023-01-28T09:56:33.191Z,1.63
2023-01-28T09:59:19.492Z,1.63
2023-01-28T10:01:57.592Z,1.68
2023-01-28T10:04:40.418Z,1.71
2023-01-28T10:07:20.296Z,1.80
2023-01-28T10:09:55.759Z,1.83
2023-01-28T10:12:58.636Z,1.86
2023-01-28T10:15:50.035Z,1.93
2023-01-28T10:18:26.719Z,2.06
2023-01-28T10:20:59.070Z,2.15
2023-01-28T10:23:33.951Z,2.23
2023-01-28T10:26:12.696Z,2.23
2023-01-28T10:28:41.261Z,2.22
2023-01-28T10:31:14.321Z,2.22
2023-01-28T10:33:44.133Z,2.23
2023-01-28T10:36:12.599Z,2.28
2023-01-28T10:38:41.061Z,2.40
2023-01-28T10:41:25.810Z,2.47
2023-01-28T10:43:54.501Z,2.56
2023-01-28T10:46:28.059Z,2.62
2023-01-28T10:49:02.611Z,2.68
2023-01-28T10:51:36.883Z,2.70
2023-01-28T10:54:21.934Z,2.80
2023-01-28T10:56:54.220Z,2.90
2023-01-28T10:59:27.022Z,3.00
2023-01-28T11:01:58.347Z,3.12
2023-01-28T11:04:30.773Z,3.26
2023-01-28T11:07:02.014Z,3.27
2023-01-28T11:09:32.047Z,3.33
2023-01-28T11:12:11.169Z,3.47
2023-01-28T11:14:39.538Z,3.65
2023-01-28T11:17:18.384Z,3.77
2023-01-28T11:19:48.703Z,3.82
2023-01-28T11:22:25.688Z,3.83
2023-01-28T11:24:54.603Z,3.81
2023-01-28T11:27:30.013Z,3.82
2023-01-28T11:30:03.098Z,3.80
2023-01-28T11:32:32.142Z,3.81
2023-01-28T11:35:01.896Z,3.80
2023-01-28T11:37:30.629Z,3.72
2023-01-28T11:40:03.586Z,3.65
2023-01-28T11:42:32.935Z,3.62
2023-01-28T11:45:01.333Z,3.56
2023-01-28T11:47:42.234Z,3.50
2023-01-28T11:50:26.817Z,3.47
2023-01-28T11:53:17.053Z,3.41
2023-01-28T11:56:01.505Z,3.40
2023-01-28T11:58:43.088Z,3.39
2023-01-28T12:01:16.102Z,3.31
2023-01-28T12:04:13.415Z,3.27
2023-01-28T12:06:59.616Z,3.21
2023-01-28T12:09:35.790Z,3.18
2023-01-28T12:12:18.878Z,3.13
2023-01-28T12:15:09.482Z,3.05
2023-01-28T12:17:49.587Z,2.96
2023-01-28T12:20:27.022Z,2.95
2023-01-28T12:23:14.258Z,2.89
2023-01-28T12:26:00.733Z,2.85
2023-01-28T12:28:45.038Z,2.78
2023-01-28T12:31:40.217Z,2.73
2023-01-28T12:34:47.941Z,2.69
2023-01-28T12:37:24.130Z,2.66
2023-01-28T12:40:16.140Z,2.62
2023-01-28T12:42:51.556Z,2.56
2023-01-28T12:45:24.506Z,2.48
2023-01-28T12:47:58.161Z,2.42
2023-01-28T12:50:30.820Z,2.43
2023-01-28T12:53:04.145Z,2.39
2023-01-28T12:55:42.434Z,2.35
2023-01-28T12:58:20.945Z,2.31
2023-01-28T13:00:52.471Z,2.27
2023-01-28T13:03:30.201Z,2.25
2023-01-28T13:06:02.889Z,2.17
2023-01-28T13:08:31.366Z,2.16
2023-01-28T13:11:03.786Z,2.15
2023-01-28T13:13:34.888Z,2.14
2023-01-28T13:16:05.476Z,2.11
2023-01-28T13:18:45.363Z,2.12
2023-01-28T13:21:32.604Z,2.16
2023-01-28T13:24:20.949Z,2.15
2023-01-28T13:26:52.769Z,2.16
2023-01-28T13:29:33.148Z,2.14
2023-01-28T13:32:03.882Z,2.15
2023-01-28T13:34:36.302Z,2.16
2023-01-28T13:37:09.044Z,2.16
2023-01-28T13:39:50.605Z,2.16
2023-01-28T13:42:29.040Z,2.16
2023-01-28T13:44:58.356Z,2.15
2023-01-28T13:47:34.016Z,2.16
2023-01-28T13:50:05.507Z,2.17
2023-01-28T13:52:37.818Z,2.20
2023-01-28T13:55:33.335Z,2.20
2023-01-28T13:58:51.735Z,2.22
2023-01-28T14:02:00.149Z,2.22
2023-01-28T14:05:12.516Z,2.23
2023-01-28T14:08:27.103Z,2.24
2023-01-28T14:11:12.763Z,2.25
2023-01-28T14:14:06.981Z,2.27
2023-01-28T14:16:42.665Z,2.28
2023-01-28T14:19:14.383Z,2.27
2023-01-28T14:21:42.897Z,2.24
2023-01-28T14:24:18.316Z,2.27
2023-01-28T14:26:54.309Z,2.28
2023-01-28T14:29:38.064Z,2.30
2023-01-28T14:32:12.961Z,2.30
2023-01-28T14:34:43.174Z,2.29
2023-01-28T14:37:15.645Z,2.29
2023-01-28T14:39:47.868Z,2.27
2023-01-28T14:42:22.861Z,2.26
2023-01-28T14:45:02.049Z,2.26
2023-01-28T14:47:45.405Z,2.25
2023-01-28T14:50:32.240Z,2.25
2023-01-28T14:53:23.699Z,2.24
2023-01-28T14:56:00.263Z,2.23
2023-01-28T14:58:33.512Z,2.20
2023-01-28T15:01:03.352Z,2.15
2023-01-28T15:03:33.134Z,2.13
2023-01-28T15:06:13.963Z,2.10
2023-01-28T15:08:42.431Z,2.07
2023-01-28T15:11:16.394Z,2.06
2023-01-28T15:13:47.771Z,2.05
2023-01-28T15:16:22.590Z,2.03
2023-01-28T15:18:51.940Z,1.99
2023-01-28T15:21:21.954Z,1.96
2023-01-28T15:23:53.892Z,1.95
2023-01-28T15:26:24.559Z,1.94
2023-01-28T15:28:54.343Z,1.86
2023-01-28T15:31:28.313Z,1.76
2023-01-28T15:33:58.212Z,1.75
2023-01-28T15:36:27.074Z,1.80
2023-01-28T15:38:55.949Z,1.82
2023-01-28T15:41:28.475Z,1.83
2023-01-28T15:43:57.034Z,1.84
2023-01-28T15:46:27.222Z,1.82
2023-01-28T15:49:00.789Z,1.83
2023-01-28T15:51:32.097Z,1.83
2023-01-28T15:54:04.445Z,1.84
2023-01-28T15:56:32.887Z,1.83
2023-01-28T15:59:19.026Z,1.80
2023-01-28T16:01:48.947Z,1.76
2023-01-28T16:04:25.616Z,1.72
2023-01-28T16:06:56.000Z,1.69
2023-01-28T16:09:27.966Z,1.67
2023-01-28T16:12:03.006Z,1.65
2023-01-28T16:14:41.517Z,1.64
2023-01-28T16:17:12.378Z,1.61
2023-01-28T16:19:46.052Z,1.57
2023-01-28T16:22:21.332Z,1.57
2023-01-28T16:24:52.275Z,1.57
2023-01-28T16:27:23.779Z,1.56
2023-01-28T16:29:52.496Z,1.53
2023-01-28T16:32:35.361Z,1.52
2023-01-28T16:35:05.803Z,1.52
2023-01-28T16:37:34.152Z,1.46
2023-01-28T16:40:02.707Z,1.37
2023-01-28T16:42:41.234Z,1.30
2023-01-28T16:45:17.895Z,1.25
2023-01-28T16:47:47.870Z,1.19
2023-01-28T16:50:18.392Z,1.15
2023-01-28T16:52:49.142Z,1.10
2023-01-28T16:55:19.915Z,1.06
2023-01-28T16:57:50.404Z,1.00
2023-01-28T17:00:20.632Z,0.96
2023-01-28T17:02:57.115Z,0.94
2023-01-28T17:05:26.862Z,0.89
2023-01-28T17:07:59.224Z,0.85
2023-01-28T17:10:27.768Z,0.84
2023-01-28T17:12:56.133Z,0.84
2023-01-28T17:15:24.481Z,0.85
2023-01-28T17:17:53.849Z,0.85
2023-01-28T17:20:23.760Z,0.89
2023-01-28T17:22:52.175Z,0.96
2023-01-28T17:25:20.682Z,1.00
2023-01-28T17:27:50.122Z,0.97
2023-01-28T17:30:20.863Z,0.92
2023-01-28T17:32:49.229Z,0.88
2023-01-28T17:35:17.959Z,0.89
2023-01-28T17:37:48.004Z,0.92
2023-01-28T17:40:16.470Z,0.99
2023-01-28T17:42:44.926Z,0.99
2023-01-28T17:45:13.846Z,0.94
2023-01-28T17:47:42.426Z,0.91
2023-01-28T17:50:12.523Z,0.88
2023-01-28T17:52:41.854Z,0.90
2023-01-28T17:55:12.102Z,0.90
2023-01-28T17:57:40.487Z,0.90
2023-01-28T18:00:11.802Z,0.89
2023-01-28T18:02:40.227Z,0.88
2023-01-28T18:05:09.175Z,0.91
2023-01-28T18:07:37.583Z,0.94
2023-01-28T18:10:07.534Z,0.95
2023-01-28T18:12:37.575Z,0.96
2023-01-28T18:15:07.049Z,1.00
2023-01-28T18:17:35.754Z,1.00
2023-01-28T18:20:06.133Z,1.04
2023-01-28T18:22:35.101Z,1.08
2023-01-28T18:25:03.534Z,1.12
2023-01-28T18:27:31.968Z,1.16
2023-01-28T18:30:01.801Z,1.18
2023-01-28T18:32:30.177Z,1.19
2023-01-28T18:34:58.619Z,1.22
2023-01-28T18:37:26.991Z,1.24
2023-01-28T18:39:55.925Z,1.27
2023-01-28T18:42:24.329Z,1.28
2023-01-28T18:44:52.747Z,1.29
2023-01-28T18:47:23.027Z,1.33
2023-01-28T18:49:54.006Z,1.33
2023-01-28T18:52:22.472Z,1.34
2023-01-28T18:54:50.934Z,1.31
2023-01-28T18:57:20.925Z,1.31
2023-01-28T18:59:49.329Z,1.32
2023-01-28T19:02:17.725Z,1.32
2023-01-28T19:04:47.507Z,1.34
2023-01-28T19:07:15.961Z,1.32
2023-01-28T19:09:44.396Z,1.32
2023-01-28T19:12:12.810Z,1.32
2023-01-28T19:14:41.444Z,1.33
2023-01-28T19:17:09.875Z,1.34
2023-01-28T19:19:38.293Z,1.36
2023-01-28T19:22:08.279Z,1.35
2023-01-28T19:24:36.731Z,1.33
2023-01-28T19:27:05.937Z,1.34
2023-01-28T19:29:34.375Z,1.34
2023-01-28T19:32:04.589Z,1.33
2023-01-28T19:34:33.099Z,1.28
2023-01-28T19:37:01.771Z,1.22
2023-01-28T19:39:32.343Z,1.14
2023-01-28T19:42:02.210Z,1.04
2023-01-28T19:44:30.708Z,1.00
2023-01-28T19:46:59.450Z,0.98
2023-01-28T19:49:27.938Z,0.99
2023-01-28T19:51:56.441Z,0.97
2023-01-28T19:54:25.102Z,0.95
2023-01-28T19:56:54.892Z,1.00
2023-01-28T19:59:23.419Z,1.02
2023-01-28T20:01:51.982Z,1.02
2023-01-28T20:04:20.369Z,1.04
2023-01-28T20:06:50.603Z,1.02
2023-01-28T20:09:20.683Z,1.07
2023-01-28T20:11:51.398Z,1.12
2023-01-28T20:14:21.554Z,1.15
2023-01-28T20:16:50.078Z,1.16
2023-01-28T20:19:19.899Z,1.14
2023-01-28T20:21:51.640Z,1.10
2023-01-28T20:24:20.047Z,1.04
2023-01-28T20:26:48.484Z,1.01
2023-01-28T20:29:20.046Z,0.99
2023-01-28T20:32:05.364Z,1.00
2023-01-28T20:34:39.153Z,1.00
2023-01-28T20:37:10.110Z,1.01
2023-01-28T20:39:38.544Z,0.99
2023-01-28T20:42:09.426Z,0.97
2023-01-28T20:44:37.995Z,0.98
2023-01-28T20:47:07.811Z,0.99
2023-01-28T20:49:36.328Z,0.98
2023-01-28T20:52:05.689Z,0.96
2023-01-28T20:54:34.062Z,0.94
2023-01-28T20:57:02.485Z,0.94
2023-01-28T20:59:32.285Z,0.91
2023-01-28T21:02:01.253Z,0.92
2023-01-28T21:04:31.248Z,0.92
2023-01-28T21:06:59.640Z,0.94
2023-01-28T21:09:28.325Z,0.94
2023-01-28T21:11:56.723Z,0.93
2023-01-28T21:14:25.172Z,0.94
2023-01-28T21:16:53.959Z,0.96
2023-01-28T21:19:22.874Z,0.97
2023-01-28T21:21:52.691Z,0.97
2023-01-28T21:24:21.094Z,0.98
2023-01-28T21:26:49.602Z,1.00
2023-01-28T21:29:18.854Z,1.00
2023-01-28T21:31:47.336Z,0.96
2023-01-28T21:34:16.050Z,0.95
2023-01-28T21:36:44.794Z,0.91
2023-01-28T21:39:14.654Z,0.87
2023-01-28T21:41:43.043Z,0.84
2023-01-28T21:44:12.782Z,0.81
2023-01-28T21:46:44.150Z,0.75
2023-01-28T21:49:12.538Z,0.74
2023-01-28T21:51:46.150Z,0.70
2023-01-28T21:54:18.038Z,0.65
2023-01-28T21:56:47.988Z,0.59
2023-01-28T21:59:30.044Z,0.56
2023-01-28T22:02:00.443Z,0.52
2023-01-28T22:04:31.391Z,0.48
2023-01-28T22:07:00.516Z,0.40
2023-01-28T22:09:31.194Z,0.40
2023-01-28T22:11:59.697Z,0.42
2023-01-28T22:14:28.259Z,0.39
2023-01-28T22:16:56.736Z,0.34
2023-01-28T22:19:25.200Z,0.31
2023-01-28T22:21:53.738Z,0.32
2023-01-28T22:24:24.455Z,0.31
2023-01-28T22:26:55.503Z,0.30
2023-01-28T22:29:25.425Z,0.23
2023-01-28T22:31:54.971Z,0.07
2023-01-28T22:34:23.830Z,-0.02
2023-01-28T22:36:52.703Z,-0.04
2023-01-28T22:39:21.093Z,-0.06
2023-01-28T22:41:49.702Z,-0.02
2023-01-28T22:44:20.796Z,-0.01
2023-01-28T22:46:49.366Z,0.00
2023-01-28T22:49:17.887Z,0.04
2023-01-28T22:51:46.446Z,0.07
2023-01-28T22:54:15.277Z,0.07
2023-01-28T22:56:43.786Z,0.08
2023-01-28T22:59:12.825Z,0.11
2023-01-28T23:01:42.690Z,0.19
2023-01-28T23:04:11.245Z,0.23
2023-01-28T23:06:39.883Z,0.27
2023-01-28T23:09:08.262Z,0.29
2023-01-28T23:11:36.737Z,0.33
2023-01-28T23:14:23.230Z,0.38
2023-01-28T23:17:10.481Z,0.40
2023-01-28T23:20:05.062Z,0.40
2023-01-28T23:22:57.532Z,0.40
2023-01-28T23:25:26.005Z,0.42
2023-01-28T23:27:54.446Z,0.42
2023-01-28T23:30:25.187Z,0.41
2023-01-28T23:32:57.707Z,0.37
2023-01-28T23:35:26.939Z,0.34
2023-01-28T23:37:56.587Z,0.32
2023-01-28T23:40:28.057Z,0.30
2023-01-28T23:42:56.684Z,0.27
2023-01-28T23:45:25.316Z,0.21
2023-01-28T23:47:55.214Z,0.10
2023-01-28T23:50:24.030Z,0.02
2023-01-28T23:52:52.400Z,-0.07
2023-01-28T23:55:20.893Z,-0.11
2023-01-28T23:57:49.349Z,-0.11
